createdAt,value
2018-04-29T07:50:27.736Z,48.40
2018-04-29T07:52:54.333Z,48.80
2018-04-29T07:55:20.581Z,48.70
2018-04-29T07:57:46.844Z,48.80
2018-04-29T08:00:13.184Z,49.20
2018-04-29T08:02:39.405Z,48.70
2018-04-29T08:05:05.661Z,48.60
2018-04-29T08:07:31.905Z,48.70
2018-04-29T08:09:58.140Z,48.60
2018-04-29T08:12:25.140Z,48.60
2018-04-29T08:14:51.361Z,48.50
2018-04-29T08:17:17.589Z,48.40
2018-04-29T08:19:43.846Z,48.50
2018-04-29T08:22:10.706Z,48.60
2018-04-29T08:24:36.964Z,48.60
2018-04-29T08:27:03.815Z,48.50
2018-04-29T08:29:30.069Z,48.20
2018-04-29T08:31:56.951Z,48.30
2018-04-29T08:34:23.214Z,48.70
2018-04-29T08:36:49.460Z,48.30
2018-04-29T08:39:15.710Z,48.00
2018-04-29T08:41:41.958Z,48.00
2018-04-29T08:44:08.208Z,47.70
2018-04-29T08:46:34.422Z,47.70
2018-04-29T08:49:00.699Z,48.00
2018-04-29T08:51:26.940Z,47.90
2018-04-29T08:53:53.160Z,47.80
2018-04-29T08:56:19.425Z,47.90
2018-04-29T08:58:45.666Z,48.00
2018-04-29T09:01:11.896Z,48.10
2018-04-29T09:03:38.234Z,48.10
2018-04-29T09:06:05.256Z,48.10
2018-04-29T09:08:32.165Z,48.10
2018-04-29T09:10:58.488Z,48.10
2018-04-29T09:13:24.732Z,48.00
2018-04-29T09:15:50.977Z,48.10
2018-04-29T09:18:17.225Z,48.10
2018-04-29T09:20:43.457Z,48.20
2018-04-29T09:23:09.677Z,48.10
2018-04-29T09:25:36.277Z,48.20
2018-04-29T09:28:02.553Z,48.20
2018-04-29T09:30:28.792Z,48.20
2018-04-29T09:32:55.057Z,48.20
2018-04-29T09:35:21.308Z,48.20
2018-04-29T09:37:47.521Z,48.20
2018-04-29T09:40:13.796Z,48.30
2018-04-29T09:42:40.047Z,48.30
2018-04-29T09:45:06.297Z,48.20
2018-04-29T09:47:32.589Z,48.30
2018-04-29T09:49:58.844Z,48.20
2018-04-29T09:52:25.071Z,48.20
2018-04-29T09:54:51.345Z,48.30
2018-04-29T09:57:17.575Z,48.20
2018-04-29T09:59:43.822Z,48.20
2018-04-29T10:02:10.104Z,48.20
2018-04-29T10:04:36.357Z,48.20
2018-04-29T10:07:02.582Z,48.20
2018-04-29T10:09:28.875Z,48.20
2018-04-29T10:11:55.093Z,48.20
2018-04-29T10:14:22.125Z,48.40
2018-04-29T10:16:49.013Z,48.30
2018-04-29T10:19:15.228Z,48.40
2018-04-29T10:21:41.450Z,48.30
2018-04-29T10:24:07.715Z,48.30
2018-04-29T10:26:33.956Z,48.40
2018-04-29T10:29:00.191Z,48.30
2018-04-29T10:31:27.232Z,48.40
2018-04-29T10:33:53.451Z,48.30
2018-04-29T10:36:19.688Z,48.40
2018-04-29T10:38:45.966Z,48.30
2018-04-29T10:41:12.389Z,48.30
2018-04-29T10:43:39.390Z,48.30
2018-04-29T10:46:05.666Z,48.20
2018-04-29T10:48:31.968Z,48.10
2018-04-29T10:50:58.215Z,48.10
2018-04-29T10:53:24.473Z,48.20
2018-04-29T10:55:50.696Z,48.00
2018-04-29T10:58:16.908Z,48.10
2018-04-29T11:00:43.204Z,48.00
2018-04-29T11:03:09.805Z,48.00
2018-04-29T11:05:36.040Z,47.90
2018-04-29T11:08:02.341Z,48.00
2018-04-29T11:10:28.589Z,48.00
2018-04-29T11:12:54.897Z,47.90
2018-04-29T11:15:21.176Z,48.00
2018-04-29T11:17:47.404Z,48.00
2018-04-29T11:20:13.619Z,48.00
2018-04-29T11:22:39.930Z,47.90
2018-04-29T11:25:06.161Z,47.90
2018-04-29T11:27:32.403Z,47.90
2018-04-29T11:29:58.682Z,47.80
2018-04-29T11:32:24.952Z,47.80
2018-04-29T11:34:51.195Z,48.10
2018-04-29T11:37:17.455Z,48.00
2018-04-29T11:39:44.406Z,48.00
2018-04-29T11:42:10.645Z,48.60
2018-04-29T11:44:36.904Z,47.90
2018-04-29T11:47:03.123Z,47.90
2018-04-29T11:49:30.077Z,47.90
2018-04-29T11:51:56.337Z,48.00
2018-04-29T11:54:22.553Z,47.90
2018-04-29T11:56:49.433Z,47.90
2018-04-29T11:59:15.708Z,47.90
2018-04-29T12:01:41.933Z,47.90
2018-04-29T12:04:08.176Z,47.90
2018-04-29T12:06:34.428Z,48.00
2018-04-29T12:09:00.649Z,48.10
2018-04-29T12:11:26.897Z,48.20
2018-04-29T12:13:53.155Z,48.30
2018-04-29T12:16:19.397Z,48.30
2018-04-29T12:18:45.660Z,48.30
2018-04-29T12:21:12.764Z,48.40
2018-04-29T12:23:39.009Z,48.40
2018-04-29T12:26:05.264Z,48.30
2018-04-29T12:28:31.517Z,48.30
2018-04-29T12:30:57.768Z,48.40
2018-04-29T12:33:23.992Z,48.40
2018-04-29T12:35:51.001Z,48.40
2018-04-29T12:38:17.228Z,48.40
2018-04-29T12:40:43.458Z,48.50
2018-04-29T12:43:09.725Z,48.70
2018-04-29T12:45:35.967Z,48.80
2018-04-29T12:48:02.205Z,48.70
2018-04-29T12:50:29.127Z,48.60
2018-04-29T12:52:55.372Z,48.70
2018-04-29T12:55:21.624Z,48.70
2018-04-29T12:57:47.882Z,48.70
2018-04-29T13:00:14.172Z,49.20
2018-04-29T13:02:40.416Z,49.30
2018-04-29T13:05:06.669Z,49.10
2018-04-29T13:07:32.912Z,49.00
2018-04-29T13:10:00.340Z,49.10
2018-04-29T13:12:26.611Z,49.10
2018-04-29T13:14:52.916Z,49.20
2018-04-29T13:17:19.924Z,49.50
2018-04-29T13:19:46.183Z,49.50
2018-04-29T13:22:12.432Z,49.80
2018-04-29T13:24:38.659Z,49.40
2018-04-29T13:27:04.937Z,49.20
2018-04-29T13:29:31.185Z,49.10
2018-04-29T13:31:57.410Z,49.20
2018-04-29T13:34:23.662Z,49.40
2018-04-29T13:36:49.900Z,49.40
2018-04-29T13:39:16.144Z,49.50
2018-04-29T13:41:42.398Z,49.50
2018-04-29T13:44:08.622Z,49.60
2018-04-29T13:46:35.044Z,49.60
2018-04-29T13:49:01.326Z,49.50
2018-04-29T13:51:27.624Z,49.50
2018-04-29T13:53:53.840Z,49.50
2018-04-29T13:56:20.122Z,49.60
2018-04-29T13:58:46.439Z,49.60
2018-04-29T14:01:12.679Z,49.60
2018-04-29T14:03:38.969Z,49.60
2018-04-29T14:06:05.778Z,49.50
2018-04-29T14:08:32.021Z,49.50
2018-04-29T14:10:58.281Z,49.50
2018-04-29T14:13:24.520Z,49.60
2018-04-29T14:15:50.768Z,49.50
2018-04-29T14:18:17.035Z,49.50
2018-04-29T14:23:15.864Z,49.50
2018-04-29T14:25:42.117Z,49.50
2018-04-29T14:28:08.359Z,49.50
2018-04-29T14:30:34.606Z,49.50
2018-04-29T14:33:00.905Z,49.50
2018-04-29T14:35:27.155Z,49.50
2018-04-29T14:37:53.388Z,49.50
2018-04-29T14:40:19.641Z,49.50
2018-04-29T14:42:45.861Z,49.50
2018-04-29T14:45:12.100Z,49.50
2018-04-29T14:47:38.375Z,49.50
2018-04-29T14:50:04.620Z,49.50
2018-04-29T14:52:31.052Z,49.40
2018-04-29T14:54:57.383Z,49.50
2018-04-29T14:57:23.643Z,49.50
2018-04-29T14:59:50.328Z,49.60
2018-04-29T15:02:16.588Z,49.50
2018-04-29T15:04:42.805Z,50.10
2018-04-29T15:07:09.782Z,49.50
2018-04-29T15:09:36.611Z,49.50
2018-04-29T15:12:02.834Z,50.10
2018-04-29T15:14:29.835Z,49.50
2018-04-29T15:16:56.112Z,49.40
2018-04-29T15:19:22.362Z,49.50
2018-04-29T15:21:48.574Z,50.10
2018-04-29T15:24:15.541Z,49.50
2018-04-29T15:26:41.791Z,49.50
2018-04-29T15:29:08.038Z,49.50
2018-04-29T15:31:34.302Z,49.50
2018-04-29T15:34:00.517Z,49.50
2018-04-29T15:36:26.929Z,49.50
2018-04-29T15:38:54.226Z,49.50
2018-04-29T15:41:20.492Z,49.50
2018-04-29T15:43:46.728Z,49.50
2018-04-29T15:46:12.973Z,49.50
2018-04-29T15:48:39.203Z,49.50
2018-04-29T15:51:05.454Z,49.50
2018-04-29T15:53:31.731Z,49.50
2018-04-29T15:55:57.957Z,49.50
2018-04-29T15:58:24.183Z,49.50
2018-04-29T16:00:50.441Z,49.50
2018-04-29T16:03:16.680Z,50.10
2018-04-29T16:05:42.920Z,49.50
2018-04-29T16:08:09.204Z,49.40
2018-04-29T16:10:35.427Z,49.80
2018-04-29T16:13:01.663Z,49.40
2018-04-29T16:15:27.932Z,49.00
2018-04-29T16:17:54.179Z,48.90
2018-04-29T16:20:20.643Z,48.80
2018-04-29T16:22:46.921Z,49.10
2018-04-29T16:25:13.145Z,49.10
2018-04-29T16:27:39.385Z,48.80
2018-04-29T16:30:06.420Z,49.70
2018-04-29T16:32:32.665Z,49.60
2018-04-29T16:34:58.894Z,49.40
2018-04-29T16:37:25.152Z,49.40
2018-04-29T16:39:52.129Z,49.40
2018-04-29T16:42:18.377Z,49.40
2018-04-29T16:44:44.638Z,49.10
2018-04-29T16:47:10.896Z,49.50
2018-04-29T16:49:37.895Z,49.30
2018-04-29T16:52:04.177Z,49.20
2018-04-29T16:54:30.388Z,49.20
2018-04-29T16:56:56.780Z,49.20
2018-04-29T16:59:23.033Z,49.30
2018-04-29T17:01:49.355Z,49.40
2018-04-29T17:04:15.581Z,49.30
2018-04-29T17:06:41.857Z,49.30
2018-04-29T17:09:08.677Z,50.00
2018-04-29T17:11:34.905Z,49.50
2018-04-29T17:14:01.188Z,49.60
2018-04-29T17:16:27.400Z,49.60
2018-04-29T17:18:53.664Z,49.60
2018-04-29T17:21:19.946Z,49.60
2018-04-29T17:23:46.213Z,49.60
2018-04-29T17:26:12.421Z,49.60
2018-04-29T17:28:38.668Z,49.60
2018-04-29T17:31:04.925Z,49.70
2018-04-29T17:33:31.151Z,49.70
2018-04-29T17:35:58.117Z,49.70
2018-04-29T17:38:24.377Z,49.70
2018-04-29T17:40:50.621Z,49.60
2018-04-29T17:43:16.899Z,49.70
2018-04-29T17:45:43.125Z,49.70
2018-04-29T17:48:09.360Z,49.60
2018-04-29T17:50:35.624Z,49.60
2018-04-29T17:53:01.842Z,49.60
2018-04-29T17:55:28.073Z,49.70
2018-04-29T17:57:54.357Z,49.60
2018-04-29T18:00:21.345Z,49.60
2018-04-29T18:02:47.605Z,49.60
2018-04-29T18:05:13.826Z,49.90
2018-04-29T18:07:40.069Z,50.10
2018-04-29T18:10:06.478Z,50.30
2018-04-29T18:12:32.693Z,49.90
2018-04-29T18:14:58.913Z,49.90
2018-04-29T18:17:25.173Z,50.00
2018-04-29T18:19:52.212Z,49.90
2018-04-29T18:22:18.478Z,49.90
2018-04-29T18:24:44.723Z,50.60
2018-04-29T18:27:10.961Z,50.00
2018-04-29T18:29:37.205Z,50.60
2018-04-29T18:32:03.433Z,50.80
2018-04-29T18:34:29.749Z,51.10
2018-04-29T18:36:55.965Z,51.20
2018-04-29T18:39:22.203Z,51.00
2018-04-29T18:41:49.214Z,50.90
2018-04-29T18:44:15.461Z,50.80
2018-04-29T18:46:42.012Z,50.70
2018-04-29T18:49:08.264Z,51.10
2018-04-29T18:51:34.598Z,51.60
2018-04-29T18:54:00.772Z,50.90
2018-04-29T18:56:27.013Z,51.30
2018-04-29T18:58:53.281Z,51.10
2018-04-29T19:01:19.537Z,50.20
2018-04-29T19:03:46.559Z,50.20
2018-04-29T19:06:12.785Z,50.20
2018-04-29T19:08:39.283Z,50.00
2018-04-29T19:11:06.030Z,49.80
2018-04-29T19:13:32.776Z,49.90
2018-04-29T19:15:59.530Z,50.00
2018-04-29T19:18:25.811Z,49.90
2018-04-29T19:20:52.091Z,49.90
2018-04-29T19:23:18.533Z,50.00
2018-04-29T19:25:44.970Z,49.80
2018-04-29T19:28:12.026Z,50.20
2018-04-29T19:30:38.281Z,50.40
2018-04-29T19:33:05.275Z,50.10
2018-04-29T19:35:31.958Z,50.20
2018-04-29T19:37:58.705Z,50.30
2018-04-29T19:40:25.453Z,50.10
2018-04-29T19:42:52.196Z,50.20
2018-04-29T19:45:18.633Z,50.30
2018-04-29T19:47:44.961Z,50.20
2018-04-29T19:50:12.988Z,50.40
2018-04-29T19:52:39.692Z,50.40
2018-04-29T19:55:06.313Z,50.30
2018-04-29T19:57:32.983Z,50.40
2018-04-29T19:59:59.728Z,50.30
2018-04-29T20:02:26.480Z,50.40
2018-04-29T20:04:53.493Z,50.40
2018-04-29T20:07:19.966Z,50.30
2018-04-29T20:09:46.722Z,50.30
2018-04-29T20:12:13.463Z,50.50
2018-04-29T20:14:40.823Z,50.10
2018-04-29T20:17:07.561Z,49.90
2018-04-29T20:19:35.235Z,49.70
2018-04-29T20:22:01.670Z,49.70
2018-04-29T20:24:28.257Z,49.80
2018-04-29T20:26:54.858Z,50.30
2018-04-29T20:29:21.294Z,49.90
2018-04-29T20:31:47.737Z,49.70
2018-04-29T20:34:14.175Z,49.60
2018-04-29T20:36:40.921Z,49.90
2018-04-29T20:39:07.184Z,49.80
2018-04-29T20:41:33.437Z,49.60
2018-04-29T20:43:59.777Z,49.60
2018-04-29T20:46:26.377Z,49.50
2018-04-29T20:48:52.688Z,49.80
2018-04-29T20:51:19.247Z,49.40
2018-04-29T20:53:45.995Z,49.70
2018-04-29T20:56:12.434Z,49.60
2018-04-29T20:58:38.876Z,50.00
2018-04-29T21:01:05.314Z,50.10
2018-04-29T21:03:32.321Z,50.10
2018-04-29T21:05:58.803Z,50.10
2018-04-29T21:08:25.245Z,50.10
2018-04-29T21:10:51.683Z,50.10
2018-04-29T21:13:18.436Z,50.20
2018-04-29T21:15:45.026Z,50.40
2018-04-29T21:18:11.451Z,50.30
2018-04-29T21:20:38.057Z,50.40
2018-04-29T21:23:04.645Z,50.30
2018-04-29T21:25:31.246Z,50.30
2018-04-29T21:27:57.989Z,50.40
2018-04-29T21:30:24.237Z,50.40
2018-04-29T21:32:50.478Z,50.50
2018-04-29T21:35:16.717Z,50.40
2018-04-29T21:37:42.992Z,50.50
2018-04-29T21:40:09.410Z,50.40
2018-04-29T21:42:36.014Z,51.20
2018-04-29T21:45:02.463Z,50.60
2018-04-29T21:47:28.699Z,50.50
2018-04-29T21:49:54.965Z,50.40
2018-04-29T21:52:21.635Z,50.50
2018-04-29T21:54:49.259Z,50.70
2018-04-29T21:57:15.502Z,50.60
2018-04-29T21:59:41.856Z,50.70
2018-04-29T22:02:08.439Z,50.70
2018-04-29T22:04:34.664Z,50.50
2018-04-29T22:07:00.908Z,50.70
2018-04-29T22:09:27.482Z,51.00
2018-04-29T22:11:53.737Z,50.70
2018-04-29T22:14:20.013Z,50.90
2018-04-29T22:16:46.241Z,51.00
2018-04-29T22:19:12.457Z,50.90
2018-04-29T22:21:38.721Z,50.80
2018-04-29T22:24:04.964Z,50.90
2018-04-29T22:26:31.228Z,50.90
2018-04-29T22:28:57.467Z,50.60
2018-04-29T22:31:23.698Z,51.00
2018-04-29T22:33:49.921Z,50.90
2018-04-29T22:36:16.141Z,51.10
2018-04-29T22:38:42.395Z,50.90
2018-04-29T22:41:08.619Z,50.80
2018-04-29T22:43:34.864Z,51.20
2018-04-29T22:46:01.073Z,51.10
2018-04-29T22:48:27.322Z,50.90
2018-04-29T22:50:53.598Z,50.80
2018-04-29T22:53:19.822Z,50.80
2018-04-29T22:55:46.120Z,51.00
2018-04-29T22:58:12.368Z,50.80
2018-04-29T23:00:38.578Z,50.90
2018-04-29T23:03:05.617Z,51.00
2018-04-29T23:05:32.613Z,51.10
2018-04-29T23:07:58.864Z,50.90
2018-04-29T23:10:25.116Z,51.20
2018-04-29T23:12:51.365Z,51.00
2018-04-29T23:15:17.608Z,51.10
2018-04-29T23:17:43.820Z,51.10
2018-04-29T23:20:10.537Z,50.80
2018-04-29T23:22:36.782Z,50.80
2018-04-29T23:25:02.997Z,50.90
2018-04-29T23:27:29.253Z,51.00
2018-04-29T23:29:55.483Z,50.90
2018-04-29T23:32:21.736Z,51.00
2018-04-29T23:34:47.959Z,50.90
2018-04-29T23:37:14.182Z,50.80
2018-04-29T23:39:40.492Z,51.10
2018-04-29T23:42:06.743Z,51.00
2018-04-29T23:44:32.967Z,51.00
2018-04-29T23:46:59.208Z,51.40
2018-04-29T23:49:25.474Z,51.10
2018-04-29T23:51:51.749Z,51.40
2018-04-29T23:54:18.000Z,51.10
2018-04-29T23:56:44.249Z,51.00
2018-04-29T23:59:10.492Z,50.90
